Time;durP1;ratioP1;P1;durP2;ratioP2;P2;SDS_P1;SDS_P2;PMS_P1;PMS_P2;Temp;Humidity;BMP_temperature;BMP_pressure;BME280_temperature;BME280_humidity;BME280_pressure;Samples;Min_cycle;Max_cycle;Signal;HPM_P1;HPM_P2
2023/12/21 00:00:59;;;;;;;5.00;3.83;;;11.60;83.70;;;;;;5028986;28;20045;-58
2023/12/21 00:03:26;;;;;;;4.85;4.35;;;11.60;83.70;;;;;;5028120;28;20533;-56
2023/12/21 00:05:52;;;;;;;6.32;4.30;;;11.60;83.70;;;;;;5021787;28;20511;-59
2023/12/21 00:08:19;;;;;;;5.70;4.47;;;11.60;83.70;;;;;;5023123;28;20049;-57
2023/12/21 00:10:46;;;;;;;6.00;4.30;;;11.70;83.70;;;;;;5021984;28;20049;-54
2023/12/21 00:13:13;;;;;;;5.22;4.72;;;11.70;83.70;;;;;;5029423;28;20038;-56
2023/12/21 00:15:42;;;;;;;5.90;4.28;;;11.70;83.80;;;;;;5017327;28;20072;-59
2023/12/21 00:18:09;;;;;;;7.20;4.75;;;11.70;83.70;;;;;;5020079;28;20045;-57
2023/12/21 00:20:36;;;;;;;6.22;4.88;;;11.70;83.70;;;;;;5027610;28;20058;-58
2023/12/21 00:23:05;;;;;;;5.32;4.28;;;11.70;83.70;;;;;;5025061;28;20053;-58
2023/12/21 00:25:32;;;;;;;8.77;5.20;;;11.70;83.70;;;;;;5012517;28;20624;-58
2023/12/21 00:27:59;;;;;;;5.60;4.93;;;11.70;83.70;;;;;;5028841;28;20045;-57
2023/12/21 00:30:26;;;;;;;6.63;4.85;;;11.70;83.70;;;;;;5022188;28;20046;-59
2023/12/21 00:32:56;;;;;;;7.93;5.22;;;11.70;83.70;;;;;;5015719;28;20039;-57
2023/12/21 00:35:27;;;;;;;7.75;4.95;;;11.80;83.60;;;;;;5025784;28;20053;-58
2023/12/21 00:37:56;;;;;;;7.63;5.05;;;11.80;83.70;;;;;;5027972;28;20099;-59
2023/12/21 00:40:22;;;;;;;6.40;5.30;;;11.80;83.70;;;;;;5027052;28;20041;-56
2023/12/21 00:42:49;;;;;;;6.13;5.45;;;11.80;83.80;;;;;;5009335;28;20041;-57
2023/12/21 00:45:18;;;;;;;7.65;5.10;;;11.80;83.70;;;;;;5025520;28;20645;-57
2023/12/21 00:47:48;;;;;;;7.72;4.80;;;11.80;83.80;;;;;;5026766;28;20076;-56
2023/12/21 00:50:17;;;;;;;;;;;11.80;83.80;;;;;;5013780;28;20072;-57
2023/12/21 00:52:44;;;;;;;6.97;5.35;;;11.90;84.20;;;;;;5011403;28;19926;-57
2023/12/21 00:55:10;;;;;;;8.68;5.35;;;11.90;83.30;;;;;;5012824;28;20483;-59
2023/12/21 00:57:37;;;;;;;6.32;4.88;;;11.90;83.40;;;;;;5018857;28;20044;-57
2023/12/21 01:00:05;;;;;;;9.70;5.55;;;11.80;83.50;;;;;;5018162;28;20092;-57
2023/12/21 01:02:31;;;;;;;8.00;5.88;;;11.80;83.60;;;;;;5025060;28;20475;-57
2023/12/21 01:04:58;;;;;;;7.88;4.80;;;11.80;83.60;;;;;;5026803;28;20048;-58
2023/12/21 01:07:26;;;;;;;6.22;4.65;;;11.80;83.70;;;;;;5011338;28;20659;-59
2023/12/21 01:09:52;;;;;;;10.27;5.75;;;11.90;83.70;;;;;;5013723;28;20037;-56
2023/12/21 01:12:19;;;;;;;5.93;4.72;;;11.80;83.70;;;;;;5025975;28;20034;-57
2023/12/21 01:14:49;;;;;;;5.53;4.90;;;11.80;83.80;;;;;;5020991;28;20061;-58
2023/12/21 01:17:16;;;;;;;8.50;4.90;;;11.90;83.90;;;;;;5009088;28;20536;-57
2023/12/21 01:19:42;;;;;;;5.80;4.35;;;11.90;83.90;;;;;;5025071;28;20099;-56
2023/12/21 01:22:12;;;;;;;5.47;3.85;;;11.80;83.80;;;;;;5026556;28;20140;-59
2023/12/21 01:24:42;;;;;;;5.50;4.38;;;11.90;83.90;;;;;;5008684;28;20133;-56
2023/12/21 01:27:09;;;;;;;5.25;4.22;;;11.90;83.80;;;;;;5023753;28;20128;-59
2023/12/21 01:29:52;;;;;;;5.30;4.80;;;11.90;83.90;;;;;;5023859;28;20124;-59
2023/12/21 01:32:19;;;;;;;4.07;3.72;;;11.90;83.90;;;;;;5022586;28;20454;-59
2023/12/21 01:34:47;;;;;;;4.22;3.50;;;11.90;83.90;;;;;;5012102;28;20065;-59
2023/12/21 01:37:14;;;;;;;5.05;4.13;;;11.90;83.90;;;;;;5022062;28;20073;-57
2023/12/21 01:39:41;;;;;;;7.20;4.53;;;11.90;83.80;;;;;;5025573;28;20050;-56
2023/12/21 01:42:08;;;;;;;6.00;4.05;;;11.90;83.80;;;;;;5025778;28;20065;-56
2023/12/21 01:44:34;;;;;;;6.70;3.97;;;11.90;83.90;;;;;;5009171;28;20125;-59
2023/12/21 01:47:01;;;;;;;5.68;3.70;;;11.90;83.90;;;;;;5021698;28;20042;-56
2023/12/21 01:49:28;;;;;;;5.22;3.70;;;11.90;83.90;;;;;;5023596;28;20129;-58
2023/12/21 01:51:57;;;;;;;4.60;4.20;;;11.90;83.90;;;;;;5016606;28;20105;-58
2023/12/21 01:54:27;;;;;;;4.03;3.63;;;11.90;83.80;;;;;;5007228;28;20527;-58
2023/12/21 01:56:54;;;;;;;5.22;3.78;;;11.90;83.90;;;;;;5022574;28;20083;-56
2023/12/21 01:59:25;;;;;;;4.70;3.75;;;11.90;83.80;;;;;;5012831;28;20046;-58
2023/12/21 02:01:52;;;;;;;4.40;3.67;;;11.90;83.90;;;;;;5017998;28;20049;-58
2023/12/21 02:04:19;;;;;;;4.30;3.60;;;11.90;83.90;;;;;;5024369;28;20103;-57
2023/12/21 02:06:50;;;;;;;4.32;3.40;;;11.90;83.80;;;;;;5007147;28;20049;-58
2023/12/21 02:09:16;;;;;;;5.00;3.85;;;11.90;83.80;;;;;;5020897;28;20069;-59
2023/12/21 02:11:46;;;;;;;5.28;3.88;;;11.90;83.90;;;;;;5016904;28;20454;-58
2023/12/21 02:14:12;;;;;;;4.47;3.35;;;11.90;83.80;;;;;;5024861;28;20090;-58
2023/12/21 02:16:55;;;;;;;6.18;3.58;;;11.90;83.90;;;;;;5009105;28;20072;-58
2023/12/21 02:19:25;;;;;;;;;;;11.90;83.90;;;;;;5024179;28;20061;-58
2023/12/21 02:21:56;;;;;;;3.83;3.13;;;12.00;84.20;;;;;;5023298;28;19955;-58
2023/12/21 02:24:27;;;;;;;4.70;3.03;;;12.00;83.50;;;;;;5010218;28;20042;-58
2023/12/21 02:26:54;;;;;;;3.58;3.28;;;11.90;83.40;;;;;;5022479;28;20583;-58
2023/12/21 02:29:21;;;;;;;5.70;3.88;;;11.90;83.50;;;;;;5026983;28;20120;-58
2023/12/21 02:31:47;;;;;;;6.20;4.07;;;11.90;83.70;;;;;;5017153;28;20062;-57
2023/12/21 02:34:14;;;;;;;7.68;4.13;;;11.90;83.70;;;;;;5020567;28;20052;-56
2023/12/21 02:36:41;;;;;;;9.43;3.45;;;11.90;83.80;;;;;;5027157;28;20237;-57
2023/12/21 02:39:10;;;;;;;5.90;4.10;;;11.90;83.80;;;;;;5026919;28;20411;-59
2023/12/21 02:41:39;;;;;;;7.40;3.88;;;11.90;83.80;;;;;;5010458;28;20132;-59
2023/12/21 02:44:09;;;;;;;10.00;4.07;;;11.90;83.80;;;;;;5022667;28;20079;-57
2023/12/21 02:46:35;;;;;;;5.50;3.70;;;11.90;83.80;;;;;;5024122;28;20057;-57
2023/12/21 02:49:02;;;;;;;5.03;4.20;;;11.90;83.80;;;;;;5009696;28;20053;-56
2023/12/21 02:51:29;;;;;;;6.65;4.03;;;11.90;83.90;;;;;;5015422;28;20085;-58
2023/12/21 02:53:57;;;;;;;6.80;3.67;;;11.90;83.90;;;;;;5011567;28;20045;-59
2023/12/21 02:56:24;;;;;;;4.70;3.33;;;11.90;83.90;;;;;;5020669;28;20053;-59
2023/12/21 02:58:50;;;;;;;6.50;3.85;;;11.90;83.90;;;;;;5014993;28;20128;-58
2023/12/21 03:01:17;;;;;;;5.70;3.95;;;11.90;84.00;;;;;;5024540;28;20046;-57
2023/12/21 03:03:44;;;;;;;4.15;3.75;;;11.90;83.90;;;;;;5019973;28;20397;-57
2023/12/21 03:06:13;;;;;;;7.07;4.00;;;11.90;84.00;;;;;;5017373;28;20050;-58
2023/12/21 03:08:42;;;;;;;5.67;3.40;;;11.90;84.00;;;;;;5019797;28;20505;-58
2023/12/21 03:11:09;;;;;;;7.80;3.63;;;11.90;84.00;;;;;;5025525;28;20069;-59
2023/12/21 03:13:38;;;;;;;4.57;3.47;;;11.90;84.00;;;;;;5020627;28;20129;-58
2023/12/21 03:16:09;;;;;;;6.93;3.35;;;11.90;84.00;;;;;;5012361;28;20052;-58
2023/12/21 03:18:36;;;;;;;7.40;3.85;;;11.90;84.00;;;;;;5022225;28;20052;-59
2023/12/21 03:21:03;;;;;;;5.95;3.92;;;11.90;84.00;;;;;;5019964;28;20046;-59
2023/12/21 03:23:30;;;;;;;6.68;3.00;;;11.90;84.00;;;;;;5010521;28;20567;-57
2023/12/21 03:25:59;;;;;;;6.65;3.60;;;11.90;84.10;;;;;;5016521;28;20449;-58
2023/12/21 03:28:26;;;;;;;6.88;3.80;;;11.90;84.20;;;;;;5023580;28;20508;-57
2023/12/21 03:30:53;;;;;;;9.10;3.88;;;11.90;84.10;;;;;;5022865;28;20050;-55
2023/12/21 03:33:19;;;;;;;5.93;3.17;;;11.90;84.20;;;;;;5017206;28;20129;-56
2023/12/21 03:35:46;;;;;;;6.63;4.07;;;12.00;84.30;;;;;;5021751;28;20125;-58
2023/12/21 03:38:13;;;;;;;5.80;3.28;;;12.00;84.30;;;;;;5022388;28;20575;-58
2023/12/21 03:40:42;;;;;;;6.50;3.40;;;12.00;84.30;;;;;;5014770;28;20091;-58
2023/12/21 03:43:14;;;;;;;5.28;3.33;;;11.90;84.20;;;;;;5015445;28;20056;-57
2023/12/21 03:45:41;;;;;;;6.38;2.80;;;11.90;84.20;;;;;;5017298;28;20530;-58
2023/12/21 03:48:09;;;;;;;3.25;2.58;;;12.00;84.30;;;;;;5015485;28;20554;-57
2023/12/21 03:50:38;;;;;;;4.63;2.95;;;12.00;84.20;;;;;;5007803;28;20044;-58
2023/12/21 03:53:07;;;;;;;6.20;3.25;;;11.90;84.30;;;;;;5007549;28;20108;-59
2023/12/21 03:55:37;;;;;;;5.57;2.97;;;11.90;84.30;;;;;;5011527;28;20104;-59
2023/12/21 03:58:04;;;;;;;5.50;3.20;;;12.00;84.40;;;;;;5015671;28;20044;-59
2023/12/21 04:00:33;;;;;;;8.07;3.22;;;12.00;84.40;;;;;;5019241;28;20134;-58
2023/12/21 04:03:06;;;;;;;3.17;2.42;;;12.00;84.50;;;;;;5022318;28;20137;-57
2023/12/21 04:05:33;;;;;;;4.20;2.75;;;12.00;84.50;;;;;;5019725;28;20557;-58
2023/12/21 04:07:59;;;;;;;3.85;2.35;;;12.00;84.50;;;;;;5013494;28;20049;-58
2023/12/21 04:10:26;;;;;;;5.38;2.55;;;12.00;84.50;;;;;;5017121;28;20120;-59
2023/12/21 04:12:54;;;;;;;4.70;2.53;;;12.00;84.50;;;;;;5020327;28;20038;-57
2023/12/21 04:15:20;;;;;;;5.95;3.28;;;11.90;84.50;;;;;;5019942;28;20041;-59
2023/12/21 04:17:47;;;;;;;7.22;2.97;;;12.00;84.60;;;;;;5014703;28;20128;-59
2023/12/21 04:20:14;;;;;;;5.93;2.47;;;12.00;84.60;;;;;;5022637;28;20046;-59
2023/12/21 04:22:41;;;;;;;4.05;3.03;;;12.00;84.60;;;;;;5015628;28;20461;-56
2023/12/21 04:25:08;;;;;;;2.63;2.42;;;12.00;84.60;;;;;;5010456;28;20418;-57
2023/12/21 04:27:35;;;;;;;3.72;2.42;;;12.00;84.60;;;;;;5019332;28;20415;-58
2023/12/21 04:30:04;;;;;;;3.33;2.47;;;12.00;84.60;;;;;;5021272;28;20096;-58
2023/12/21 04:32:35;;;;;;;4.13;2.50;;;12.00;84.60;;;;;;5009607;28;20048;-58
2023/12/21 04:35:02;;;;;;;4.32;2.85;;;12.00;84.70;;;;;;5017394;28;20809;-59
2023/12/21 04:37:28;;;;;;;4.05;2.55;;;12.00;84.70;;;;;;5019865;28;20601;-59
2023/12/21 04:39:55;;;;;;;4.43;3.00;;;12.00;84.80;;;;;;5017645;28;20054;-59
2023/12/21 04:42:22;;;;;;;3.40;2.88;;;12.00;84.80;;;;;;5010823;28;20068;-59
2023/12/21 04:44:49;;;;;;;3.97;2.55;;;12.00;84.80;;;;;;5017980;28;20129;-57
2023/12/21 04:47:16;;;;;;;6.63;3.08;;;12.00;84.90;;;;;;5021429;28;20080;-57
2023/12/21 04:49:50;;;;;;;7.10;3.03;;;12.00;84.80;;;;;;5007990;28;20049;-57
2023/12/21 04:52:21;;;;;;;6.07;3.10;;;12.00;84.90;;;;;;5010799;28;20053;-58
2023/12/21 04:54:48;;;;;;;6.70;3.20;;;12.00;85.60;;;;;;5007846;28;20452;-57
2023/12/21 04:57:14;;;;;;;9.30;3.95;;;12.00;84.90;;;;;;5009761;28;20065;-59
2023/12/21 04:59:47;;;;;;;6.47;3.53;;;12.00;84.90;;;;;;5008947;28;20110;-58
2023/12/21 05:02:14;;;;;;;5.53;3.08;;;12.00;84.90;;;;;;5020585;28;20144;-58
2023/12/21 05:04:40;;;;;;;7.93;3.88;;;12.00;84.90;;;;;;5017528;28;20046;-58
2023/12/21 05:07:10;;;;;;;8.45;3.88;;;12.00;85.00;;;;;;5009402;28;20116;-59
2023/12/21 05:09:37;;;;;;;6.93;4.40;;;12.00;85.00;;;;;;5017104;28;20042;-57
2023/12/21 05:12:04;;;;;;;8.38;4.22;;;12.00;85.00;;;;;;5018952;28;20404;-57
2023/12/21 05:14:31;;;;;;;9.10;4.05;;;12.00;85.00;;;;;;5012166;28;20029;-59
2023/12/21 05:16:58;;;;;;;7.80;3.67;;;12.00;85.00;;;;;;5014345;28;20104;-60
2023/12/21 05:19:24;;;;;;;9.07;5.03;;;12.00;85.10;;;;;;5019357;28;20147;-58
2023/12/21 05:21:52;;;;;;;8.85;4.78;;;12.10;85.10;;;;;;5012413;28;20038;-57
2023/12/21 05:24:19;;;;;;;8.95;4.43;;;12.00;85.10;;;;;;5007655;28;20398;-59
2023/12/21 05:26:45;;;;;;;6.80;3.75;;;12.10;85.10;;;;;;5014371;28;20045;-59
2023/12/21 05:29:14;;;;;;;10.18;3.92;;;12.00;85.20;;;;;;5019119;28;20051;-56
2023/12/21 05:31:42;;;;;;;12.15;4.72;;;12.10;85.20;;;;;;5010654;28;20113;-58
2023/12/21 05:34:09;;;;;;;8.90;5.13;;;12.10;85.30;;;;;;5013447;28;20034;-59
2023/12/21 05:36:36;;;;;;;8.25;4.15;;;12.10;85.30;;;;;;5016860;28;20049;-58
2023/12/21 05:39:03;;;;;;;11.07;4.38;;;12.10;85.30;;;;;;5013969;28;20073;-59
2023/12/21 05:41:43;;;;;;;8.90;4.32;;;12.10;85.30;;;;;;5008733;28;20306;-58
2023/12/21 05:44:12;;;;;;;12.30;4.97;;;12.10;85.30;;;;;;5018075;28;20129;-60
2023/12/21 05:46:39;;;;;;;10.77;4.43;;;12.10;85.20;;;;;;5016307;28;20038;-58
2023/12/21 05:49:06;;;;;;;9.00;3.92;;;12.10;85.30;;;;;;5021985;28;20061;-59
2023/12/21 05:51:33;;;;;;;10.63;4.53;;;12.10;85.30;;;;;;5009771;28;20545;-59
2023/12/21 05:53:59;;;;;;;8.82;4.13;;;12.10;85.20;;;;;;5007309;28;20066;-60
2023/12/21 05:56:30;;;;;;;9.63;4.55;;;12.10;85.30;;;;;;5012831;28;20045;-58
2023/12/21 05:58:56;;;;;;;8.60;4.40;;;12.10;85.30;;;;;;5007989;28;20456;-59
2023/12/21 06:01:24;;;;;;;6.22;3.65;;;12.10;85.30;;;;;;5017175;28;20065;-60
2023/12/21 06:03:51;;;;;;;9.55;4.65;;;12.20;85.40;;;;;;5019326;28;20061;-58
2023/12/21 06:06:18;;;;;;;9.93;4.28;;;12.20;85.30;;;;;;5013934;28;20821;-60
2023/12/21 06:08:44;;;;;;;8.60;4.30;;;12.20;85.40;;;;;;5018966;28;20551;-59
2023/12/21 06:11:11;;;;;;;10.18;4.28;;;12.20;85.30;;;;;;5020011;28;20042;-59
2023/12/21 06:13:42;;;;;;;7.55;4.60;;;12.20;85.40;;;;;;5018051;28;20465;-60
2023/12/21 06:16:11;;;;;;;11.57;4.57;;;12.20;85.40;;;;;;5016446;28;20034;-59
2023/12/21 06:18:39;;;;;;;6.97;4.47;;;12.20;85.40;;;;;;5018340;28;20038;-60
2023/12/21 06:21:08;;;;;;;5.97;3.58;;;12.20;86.00;;;;;;5019503;28;20041;-58
2023/12/21 06:23:39;;;;;;;9.40;4.07;;;12.20;85.30;;;;;;5007271;28;20039;-59
2023/12/21 06:26:09;;;;;;;7.20;4.78;;;12.20;85.50;;;;;;5016027;28;20128;-58
2023/12/21 06:28:36;;;;;;;9.52;4.28;;;12.20;85.30;;;;;;5018906;28;20076;-60
2023/12/21 06:31:03;;;;;;;10.65;3.95;;;12.20;85.30;;;;;;5017824;28;20045;-58
2023/12/21 06:33:32;;;;;;;10.65;4.00;;;12.20;85.30;;;;;;5014068;28;20042;-60
2023/12/21 06:36:03;;;;;;;16.15;4.45;;;12.20;85.20;;;;;;5017958;28;20058;-58
2023/12/21 06:38:32;;;;;;;13.40;4.32;;;12.20;85.20;;;;;;5018958;28;20044;-59
2023/12/21 06:40:59;;;;;;;9.07;4.80;;;12.30;85.30;;;;;;5013084;28;20129;-58
2023/12/21 06:43:26;;;;;;;9.00;3.78;;;12.30;85.20;;;;;;5019513;28;20068;-59
2023/12/21 06:45:55;;;;;;;8.85;4.60;;;12.30;85.30;;;;;;5016970;28;20073;-57
2023/12/21 06:48:22;;;;;;;11.02;4.55;;;12.30;85.30;;;;;;5019081;28;20107;-59
2023/12/21 06:50:49;;;;;;;9.48;4.78;;;12.30;85.30;;;;;;5011521;28;20050;-57
2023/12/21 06:53:17;;;;;;;11.13;4.57;;;12.30;85.30;;;;;;5011180;28;20128;-60
2023/12/21 06:55:45;;;;;;;10.07;4.90;;;12.30;85.30;;;;;;5016467;28;20516;-60
2023/12/21 06:58:12;;;;;;;9.73;5.05;;;12.30;85.30;;;;;;5013471;28;20088;-60
2023/12/21 07:00:39;;;;;;;10.48;5.05;;;12.30;85.30;;;;;;5016027;28;20045;-59
2023/12/21 07:03:08;;;;;;;10.50;5.03;;;12.30;85.30;;;;;;5016698;28;20040;-60
2023/12/21 07:05:35;;;;;;;9.77;4.40;;;12.30;85.30;;;;;;5016813;28;20049;-58
2023/12/21 07:08:02;;;;;;;11.48;4.50;;;12.30;85.30;;;;;;5012271;28;20049;-59
2023/12/21 07:10:28;;;;;;;12.48;4.93;;;12.30;85.30;;;;;;5013593;28;20117;-59
2023/12/21 07:12:56;;;;;;;8.40;4.53;;;12.30;85.30;;;;;;5014705;28;20084;-59
2023/12/21 07:15:24;;;;;;;12.18;4.88;;;12.40;85.40;;;;;;5017572;28;20096;-59
2023/12/21 07:17:51;;;;;;;11.77;4.45;;;12.30;85.30;;;;;;5013379;28;20122;-59
2023/12/21 07:20:24;;;;;;;12.65;4.57;;;12.30;85.30;;;;;;5017808;28;20037;-57
2023/12/21 07:22:53;;;;;;;14.90;4.43;;;12.30;85.30;;;;;;5014235;28;20076;-59
2023/12/21 07:25:20;;;;;;;14.35;4.80;;;12.40;85.30;;;;;;5012699;28;20042;-60
2023/12/21 07:27:47;;;;;;;15.20;5.72;;;12.40;85.20;;;;;;5016063;28;20038;-58
2023/12/21 07:30:15;;;;;;;12.65;4.85;;;12.40;85.30;;;;;;5016879;28;20100;-60
2023/12/21 07:32:42;;;;;;;10.48;4.90;;;12.40;85.30;;;;;;5000363;28;20084;-58
2023/12/21 07:35:12;;;;;;;10.02;4.70;;;12.40;85.20;;;;;;5014860;28;20049;-60
2023/12/21 07:37:38;;;;;;;10.65;4.32;;;12.40;85.20;;;;;;5015416;28;20038;-60
2023/12/21 07:40:06;;;;;;;10.65;4.18;;;12.40;85.10;;;;;;5015405;28;20045;-58
2023/12/21 07:42:32;;;;;;;9.38;4.15;;;12.40;85.20;;;;;;5012855;28;20041;-60
2023/12/21 07:45:02;;;;;;;8.77;3.95;;;12.40;85.10;;;;;;5015138;28;20463;-59
2023/12/21 07:47:28;;;;;;;10.25;4.88;;;12.40;85.10;;;;;;5016006;28;20046;-59
2023/12/21 07:49:55;;;;;;;14.23;5.25;;;12.40;85.10;;;;;;5010908;28;20497;-58
2023/12/21 07:52:22;;;;;;;11.02;4.18;;;12.40;85.10;;;;;;5010533;28;20062;-59
2023/12/21 07:54:48;;;;;;;9.75;4.40;;;12.40;85.10;;;;;;5009107;28;20038;-59
2023/12/21 07:57:15;;;;;;;11.27;4.03;;;12.40;85.20;;;;;;5013108;28;20111;-57
2023/12/21 07:59:42;;;;;;;10.02;3.97;;;12.40;85.20;;;;;;5012848;28;20116;-59
2023/12/21 08:02:08;;;;;;;12.70;4.68;;;12.30;85.10;;;;;;5012872;28;20096;-59
2023/12/21 08:04:35;;;;;;;13.45;3.97;;;12.40;85.20;;;;;;5015010;28;20068;-59
2023/12/21 08:07:02;;;;;;;9.60;4.30;;;12.40;85.20;;;;;;5010441;28;20050;-59
2023/12/21 08:09:29;;;;;;;7.75;3.33;;;12.40;85.20;;;;;;5012870;28;20511;-59
2023/12/21 08:11:55;;;;;;;8.43;4.55;;;12.40;85.20;;;;;;5013775;28;20117;-59
2023/12/21 08:14:26;;;;;;;11.50;4.35;;;12.40;85.10;;;;;;5011179;28;20093;-59
2023/12/21 08:16:53;;;;;;;8.43;3.03;;;12.40;85.10;;;;;;5008087;28;20519;-59
2023/12/21 08:19:22;;;;;;;7.30;3.47;;;12.40;85.10;;;;;;5014505;28;20104;-60
2023/12/21 08:21:49;;;;;;;9.82;3.58;;;12.50;85.20;;;;;;5013416;28;20500;-60
2023/12/21 08:24:16;;;;;;;6.68;2.90;;;12.50;85.20;;;;;;5007713;28;20064;-59
2023/12/21 08:26:42;;;;;;;8.50;2.85;;;12.50;85.30;;;;;;5006281;28;20092;-59
2023/12/21 08:29:09;;;;;;;6.60;3.13;;;12.50;85.20;;;;;;5011920;28;20045;-59
2023/12/21 08:31:38;;;;;;;7.35;2.67;;;12.50;85.20;;;;;;5012399;28;20684;-60
2023/12/21 08:34:05;;;;;;;5.47;3.33;;;12.50;85.30;;;;;;5021365;28;20047;-60
2023/12/21 08:36:36;;;;;;;6.57;2.95;;;12.40;85.30;;;;;;5013031;28;20122;-58
2023/12/21 08:39:05;;;;;;;3.95;2.30;;;12.50;85.50;;;;;;5012223;28;20068;-60
2023/12/21 08:41:31;;;;;;;7.00;3.00;;;12.50;85.50;;;;;;5007506;28;20085;-60
2023/12/21 08:43:58;;;;;;;6.18;3.08;;;12.50;85.70;;;;;;5012662;28;20046;-60
2023/12/21 08:46:30;;;;;;;6.78;2.53;;;12.50;85.60;;;;;;5012486;28;20104;-60
2023/12/21 08:49:02;;;;;;;5.63;2.53;;;12.50;85.60;;;;;;5012490;28;20676;-61
2023/12/21 08:51:29;;;;;;;3.13;2.00;;;12.50;85.60;;;;;;5003617;28;20057;-60
2023/12/21 08:54:00;;;;;;;5.63;3.22;;;12.50;85.70;;;;;;5006622;28;20038;-61
2023/12/21 08:56:26;;;;;;;6.45;2.85;;;12.50;85.80;;;;;;5010709;28;20085;-61
2023/12/21 08:58:56;;;;;;;3.75;2.13;;;12.50;85.80;;;;;;5008123;28;20045;-60
2023/12/21 09:01:23;;;;;;;6.25;2.78;;;12.50;85.90;;;;;;5011821;28;20056;-61
2023/12/21 09:03:50;;;;;;;7.45;2.97;;;12.50;85.90;;;;;;5011872;28;20046;-61
2023/12/21 09:06:17;;;;;;;4.85;2.00;;;12.50;85.90;;;;;;5010099;28;20491;-60
2023/12/21 09:08:46;;;;;;;5.75;2.97;;;12.50;85.90;;;;;;5009082;28;20411;-61
2023/12/21 09:11:12;;;;;;;3.78;2.08;;;12.50;86.00;;;;;;5011368;28;20042;-61
2023/12/21 09:13:39;;;;;;;3.45;1.80;;;12.50;86.10;;;;;;5011516;28;20037;-60
2023/12/21 09:16:08;;;;;;;5.78;2.30;;;12.50;86.20;;;;;;5007330;28;20048;-61
2023/12/21 09:18:34;;;;;;;5.85;2.00;;;12.50;86.20;;;;;;5010686;28;20052;-61
2023/12/21 09:21:03;;;;;;;4.22;2.22;;;12.50;86.30;;;;;;5011292;28;20121;-61
2023/12/21 09:23:32;;;;;;;2.30;1.70;;;12.50;86.20;;;;;;5008368;28;20045;-60
2023/12/21 09:25:59;;;;;;;4.97;1.50;;;12.50;86.30;;;;;;5007092;28;20042;-60
2023/12/21 09:28:25;;;;;;;2.90;1.42;;;12.60;86.40;;;;;;5010518;28;20050;-61
2023/12/21 09:30:52;;;;;;;3.28;1.38;;;12.50;86.40;;;;;;5009494;28;20042;-60
2023/12/21 09:33:21;;;;;;;3.42;1.33;;;12.60;86.50;;;;;;5006249;28;20412;-61
2023/12/21 09:35:54;;;;;;;3.42;1.70;;;12.60;86.50;;;;;;5024732;28;20040;-61
2023/12/21 09:38:20;;;;;;;3.45;1.38;;;12.60;86.70;;;;;;5034006;28;20463;-60
2023/12/21 09:40:50;;;;;;;2.70;1.45;;;12.60;86.70;;;;;;5034387;28;20416;-60
2023/12/21 09:43:21;;;;;;;2.83;1.25;;;12.60;86.70;;;;;;5020342;28;20612;-59
2023/12/21 09:45:52;;;;;;;4.25;1.42;;;12.60;86.70;;;;;;5026430;28;20112;-59
2023/12/21 09:48:23;;;;;;;3.95;1.77;;;12.60;86.80;;;;;;5025386;28;20089;-60
2023/12/21 09:50:50;;;;;;;4.18;1.20;;;12.60;86.80;;;;;;5033745;28;20029;-60
2023/12/21 09:53:19;;;;;;;2.90;1.35;;;12.60;86.80;;;;;;5011611;28;20119;-61
2023/12/21 09:55:48;;;;;;;2.60;1.63;;;12.60;86.90;;;;;;5019579;28;20059;-60
2023/12/21 09:58:15;;;;;;;3.95;1.27;;;12.60;86.90;;;;;;5017998;28;20058;-61
2023/12/21 10:00:42;;;;;;;2.63;1.80;;;12.60;87.00;;;;;;5031738;28;20037;-61
2023/12/21 10:03:09;;;;;;;2.45;1.48;;;12.70;87.70;;;;;;5033303;28;20041;-61
2023/12/21 10:05:36;;;;;;;2.97;1.90;;;12.70;87.30;;;;;;5032316;28;20049;-61
2023/12/21 10:08:03;;;;;;;5.32;1.90;;;12.70;87.30;;;;;;5020396;28;20037;-61
2023/12/21 10:10:30;;;;;;;3.63;2.83;;;12.70;87.30;;;;;;5026291;28;20046;-60
2023/12/21 10:12:58;;;;;;;2.40;2.13;;;12.70;87.40;;;;;;5030312;28;20391;-60
2023/12/21 10:15:25;;;;;;;3.78;2.50;;;12.70;88.10;;;;;;5030418;28;20069;-61
2023/12/21 10:17:51;;;;;;;6.35;3.20;;;12.70;87.50;;;;;;5013093;28;20041;-59
2023/12/21 10:20:18;;;;;;;6.68;3.08;;;12.70;87.40;;;;;;5031721;28;20045;-61
2023/12/21 10:22:45;;;;;;;3.42;2.92;;;12.80;87.50;;;;;;5032153;28;20045;-60
2023/12/21 10:25:13;;;;;;;4.18;2.70;;;12.80;87.50;;;;;;5012995;28;20049;-60
2023/12/21 10:27:43;;;;;;;4.15;3.20;;;12.80;87.40;;;;;;5030925;28;20042;-60
2023/12/21 10:30:10;;;;;;;5.05;2.60;;;12.80;87.40;;;;;;5027626;28;20465;-60
2023/12/21 10:32:36;;;;;;;3.63;2.58;;;12.80;87.40;;;;;;5026280;28;20050;-60
2023/12/21 10:35:04;;;;;;;5.30;2.78;;;12.80;87.50;;;;;;5031003;28;20042;-60
2023/12/21 10:37:32;;;;;;;3.25;2.20;;;12.80;87.40;;;;;;5029273;28;20038;-60
2023/12/21 10:40:00;;;;;;;5.80;3.00;;;12.80;87.50;;;;;;5031315;28;20048;-60
2023/12/21 10:42:27;;;;;;;4.97;3.10;;;12.90;87.50;;;;;;5028323;28;20084;-60
2023/12/21 10:44:55;;;;;;;4.40;3.25;;;12.90;87.50;;;;;;5020403;28;20124;-60
2023/12/21 10:47:22;;;;;;;7.40;3.85;;;12.90;87.50;;;;;;5028719;28;20136;-60
2023/12/21 10:49:50;;;;;;;6.70;3.05;;;12.90;87.50;;;;;;5016967;28;20048;-59
2023/12/21 10:52:20;;;;;;;5.85;3.22;;;12.90;87.60;;;;;;5011918;28;20046;-60
2023/12/21 10:54:51;;;;;;;6.72;3.50;;;12.90;87.50;;;;;;5011101;28;20037;-60
2023/12/21 10:57:23;;;;;;;8.32;4.10;;;12.90;87.50;;;;;;5023300;28;20044;-59
2023/12/21 10:59:50;;;;;;;4.70;4.03;;;12.90;87.60;;;;;;5014534;28;20044;-61
2023/12/21 11:02:19;;;;;;;4.40;3.50;;;12.90;87.70;;;;;;5030436;28;20053;-63
2023/12/21 11:04:47;;;;;;;5.72;2.88;;;12.90;87.80;;;;;;5029576;28;20483;-62
2023/12/21 11:07:15;;;;;;;3.47;3.17;;;12.90;87.80;;;;;;5009619;28;20508;-63
2023/12/21 11:09:47;;;;;;;4.50;3.03;;;13.00;87.80;;;;;;5029067;28;20100;-62
2023/12/21 11:12:16;;;;;;;4.55;3.95;;;13.00;87.90;;;;;;5028188;28;20072;-62
2023/12/21 11:14:44;;;;;;;5.15;2.92;;;13.00;88.00;;;;;;5014971;28;20049;-62
2023/12/21 11:17:14;;;;;;;4.75;2.95;;;13.00;88.10;;;;;;5020699;28;20057;-62
2023/12/21 11:19:47;;;;;;;3.83;2.78;;;13.00;88.10;;;;;;5028230;28;20042;-61
2023/12/21 11:22:14;;;;;;;3.75;2.88;;;13.10;88.10;;;;;;5010997;28;20050;-61
2023/12/21 11:24:40;;;;;;;6.68;3.25;;;13.10;88.10;;;;;;5012807;28;20049;-63
2023/12/21 11:27:07;;;;;;;2.95;2.45;;;13.10;88.00;;;;;;5026930;28;20073;-62
2023/12/21 11:29:34;;;;;;;6.07;3.47;;;13.20;88.10;;;;;;5027769;28;20045;-62
2023/12/21 11:32:05;;;;;;;7.28;3.42;;;13.20;88.10;;;;;;5011737;28;20113;-63
2023/12/21 11:34:39;;;;;;;4.23;3.07;;;13.20;88.20;;;;;;5022401;28;20097;-62
2023/12/21 11:37:37;;;;;;;3.22;2.88;;;13.30;88.30;;;;;;5029330;28;20419;-62
2023/12/21 11:40:04;;;;;;;3.97;2.67;;;13.30;88.60;;;;;;5017255;28;20060;-62
2023/12/21 11:42:35;;;;;;;3.00;2.67;;;13.30;88.20;;;;;;5016099;28;20053;-62
2023/12/21 11:45:03;;;;;;;2.38;2.17;;;13.40;88.10;;;;;;5028703;28;20163;-62
2023/12/21 11:47:31;;;;;;;3.90;1.98;;;13.40;88.30;;;;;;5026537;28;20052;-62
2023/12/21 11:50:09;;;;;;;3.20;2.15;;;13.40;88.30;;;;;;5020526;28;20108;-61
2023/12/21 11:52:37;;;;;;;4.75;2.55;;;13.40;88.50;;;;;;5012655;28;20941;-63
2023/12/21 11:55:05;;;;;;;3.08;1.80;;;13.50;88.50;;;;;;5012893;28;20045;-63
2023/12/21 11:57:39;;;;;;;2.40;1.50;;;13.50;88.30;;;;;;5020413;28;20076;-63
2023/12/21 12:00:12;;;;;;;4.40;2.22;;;13.50;88.00;;;;;;5018962;28;20073;-62
2023/12/21 12:02:39;;;;;;;2.08;1.67;;;13.60;87.90;;;;;;5025859;28;20045;-62
2023/12/21 12:05:08;;;;;;;2.92;1.30;;;13.60;87.80;;;;;;5027627;28;20091;-61
2023/12/21 12:07:36;;;;;;;2.33;1.50;;;13.60;87.60;;;;;;5013925;28;20073;-61
2023/12/21 12:10:04;;;;;;;2.97;1.80;;;13.60;87.30;;;;;;5012349;28;20037;-62
2023/12/21 12:12:33;;;;;;;3.00;1.40;;;13.60;87.30;;;;;;5022934;28;20092;-60
2023/12/21 12:15:00;;;;;;;2.08;1.65;;;13.60;87.20;;;;;;5018398;28;20144;-60
2023/12/21 12:17:26;;;;;;;1.98;1.58;;;13.60;87.20;;;;;;5014292;28;20042;-59
2023/12/21 12:19:55;;;;;;;2.03;1.20;;;13.70;87.30;;;;;;5026225;28;20121;-59
2023/12/21 12:22:23;;;;;;;1.55;1.10;;;13.60;87.40;;;;;;5026140;28;20095;-60
2023/12/21 12:24:51;;;;;;;2.15;1.70;;;13.70;87.50;;;;;;5013088;28;20463;-60
2023/12/21 12:27:20;;;;;;;1.55;0.90;;;13.70;87.30;;;;;;5023922;28;20037;-59
2023/12/21 12:29:47;;;;;;;0.93;0.80;;;13.70;87.40;;;;;;5023766;28;20479;-59
2023/12/21 12:32:16;;;;;;;2.17;1.10;;;13.70;87.30;;;;;;5023009;28;20044;-59
2023/12/21 12:34:44;;;;;;;1.85;1.05;;;13.80;87.20;;;;;;5012702;28;20167;-60
2023/12/21 12:37:12;;;;;;;2.10;1.30;;;13.70;87.10;;;;;;5022472;28;20046;-61
2023/12/21 12:39:39;;;;;;;2.10;0.70;;;13.70;87.00;;;;;;5023864;28;20050;-61
2023/12/21 12:42:06;;;;;;;2.33;1.15;;;13.80;87.10;;;;;;5021518;28;20100;-61
2023/12/21 12:44:36;;;;;;;1.17;0.70;;;13.80;87.10;;;;;;5013829;28;20136;-60
2023/12/21 12:47:05;;;;;;;2.72;0.90;;;13.80;87.00;;;;;;5025773;28;20456;-60
2023/12/21 12:49:35;;;;;;;1.55;0.70;;;13.80;86.80;;;;;;5023798;28;20100;-60